sensor_id;sensor_type;location;lat;lon;timestamp;P1;durP1;ratioP1;P2;durP2;ratioP2
53843;SDS011;39744;53.314;5.710;2022-10-01T00:01:55;18.02;;;10.95;;
53843;SDS011;39744;53.314;5.710;2022-10-01T00:04:22;18.80;;;11.38;;
53843;SDS011;39744;53.314;5.710;2022-10-01T00:06:48;19.27;;;11.27;;
53843;SDS011;39744;53.314;5.710;2022-10-01T00:09:14;19.35;;;12.23;;
53843;SDS011;39744;53.314;5.710;2022-10-01T00:11:40;21.55;;;12.25;;
53843;SDS011;39744;53.314;5.710;2022-10-01T00:14:06;17.92;;;11.93;;
53843;SDS011;39744;53.314;5.710;2022-10-01T00:16:32;20.55;;;12.73;;
53843;SDS011;39744;53.314;5.710;2022-10-01T00:18:58;23.08;;;13.52;;
53843;SDS011;39744;53.314;5.710;2022-10-01T00:21:28;23.02;;;13.73;;
53843;SDS011;39744;53.314;5.710;2022-10-01T00:26:22;17.23;;;12.35;;
53843;SDS011;39744;53.314;5.710;2022-10-01T00:28:55;21.73;;;13.75;;
53843;SDS011;39744;53.314;5.710;2022-10-01T00:31:21;22.35;;;13.93;;
53843;SDS011;39744;53.314;5.710;2022-10-01T00:33:50;21.40;;;14.23;;
53843;SDS011;39744;53.314;5.710;2022-10-01T00:36:17;21.10;;;14.50;;
53843;SDS011;39744;53.314;5.710;2022-10-01T00:38:42;26.10;;;14.77;;
53843;SDS011;39744;53.314;5.710;2022-10-01T00:41:10;29.75;;;15.95;;
53843;SDS011;39744;53.314;5.710;2022-10-01T00:43:37;24.55;;;15.70;;
53843;SDS011;39744;53.314;5.710;2022-10-01T00:49:03;27.65;;;16.83;;
53843;SDS011;39744;53.314;5.710;2022-10-01T00:51:36;39.45;;;16.92;;
53843;SDS011;39744;53.314;5.710;2022-10-01T00:56:30;24.60;;;16.42;;
53843;SDS011;39744;53.314;5.710;2022-10-01T00:58:56;36.88;;;17.27;;
53843;SDS011;39744;53.314;5.710;2022-10-01T01:01:22;29.75;;;17.35;;
53843;SDS011;39744;53.314;5.710;2022-10-01T01:03:49;29.75;;;16.50;;
53843;SDS011;39744;53.314;5.710;2022-10-01T01:06:15;51.90;;;18.55;;
53843;SDS011;39744;53.314;5.710;2022-10-01T01:08:42;28.00;;;15.75;;
53843;SDS011;39744;53.314;5.710;2022-10-01T01:16:22;34.15;;;16.92;;
53843;SDS011;39744;53.314;5.710;2022-10-01T01:29:15;30.00;;;15.68;;
53843;SDS011;39744;53.314;5.710;2022-10-01T01:31:45;26.42;;;14.82;;
53843;SDS011;39744;53.314;5.710;2022-10-01T01:34:14;23.33;;;13.95;;
53843;SDS011;39744;53.314;5.710;2022-10-01T01:36:43;25.42;;;13.75;;
53843;SDS011;39744;53.314;5.710;2022-10-01T01:39:11;25.60;;;13.63;;
53843;SDS011;39744;53.314;5.710;2022-10-01T01:41:39;21.35;;;12.85;;
53843;SDS011;39744;53.314;5.710;2022-10-01T01:44:09;24.17;;;11.93;;
53843;SDS011;39744;53.314;5.710;2022-10-01T01:46:37;22.27;;;12.82;;
53843;SDS011;39744;53.314;5.710;2022-10-01T01:49:05;24.00;;;11.80;;
53843;SDS011;39744;53.314;5.710;2022-10-01T01:51:34;19.73;;;11.15;;
53843;SDS011;39744;53.314;5.710;2022-10-01T01:54:03;18.20;;;11.25;;
53843;SDS011;39744;53.314;5.710;2022-10-01T01:56:29;22.08;;;11.25;;
53843;SDS011;39744;53.314;5.710;2022-10-01T01:58:56;20.13;;;10.90;;
53843;SDS011;39744;53.314;5.710;2022-10-01T02:01:32;20.50;;;11.90;;
53843;SDS011;39744;53.314;5.710;2022-10-01T02:03:59;18.10;;;10.45;;
53843;SDS011;39744;53.314;5.710;2022-10-01T02:06:33;19.75;;;10.80;;
53843;SDS011;39744;53.314;5.710;2022-10-01T02:09:21;19.67;;;10.90;;
53843;SDS011;39744;53.314;5.710;2022-10-01T02:11:54;19.38;;;10.80;;
53843;SDS011;39744;53.314;5.710;2022-10-01T02:14:48;19.30;;;10.90;;
53843;SDS011;39744;53.314;5.710;2022-10-01T02:22:36;18.10;;;10.95;;
53843;SDS011;39744;53.314;5.710;2022-10-01T02:25:04;17.35;;;10.32;;
53843;SDS011;39744;53.314;5.710;2022-10-01T02:27:39;14.90;;;9.35;;
53843;SDS011;39744;53.314;5.710;2022-10-01T02:30:08;16.25;;;9.07;;
53843;SDS011;39744;53.314;5.710;2022-10-01T02:32:36;15.20;;;8.82;;
53843;SDS011;39744;53.314;5.710;2022-10-01T02:35:05;13.00;;;8.60;;
53843;SDS011;39744;53.314;5.710;2022-10-01T02:37:31;14.82;;;8.80;;
53843;SDS011;39744;53.314;5.710;2022-10-01T02:39:58;15.20;;;8.32;;
53843;SDS011;39744;53.314;5.710;2022-10-01T02:42:26;16.60;;;8.57;;
53843;SDS011;39744;53.314;5.710;2022-10-01T02:44:53;13.77;;;8.32;;
53843;SDS011;39744;53.314;5.710;2022-10-01T02:47:22;10.93;;;6.90;;
53843;SDS011;39744;53.314;5.710;2022-10-01T02:49:50;12.52;;;7.68;;
53843;SDS011;39744;53.314;5.710;2022-10-01T02:52:27;13.93;;;7.18;;
53843;SDS011;39744;53.314;5.710;2022-10-01T02:55:06;10.50;;;6.60;;
53843;SDS011;39744;53.314;5.710;2022-10-01T02:57:34;10.32;;;6.63;;
53843;SDS011;39744;53.314;5.710;2022-10-01T03:00:02;11.50;;;5.80;;
53843;SDS011;39744;53.314;5.710;2022-10-01T03:02:29;8.23;;;5.82;;
53843;SDS011;39744;53.314;5.710;2022-10-01T03:04:56;9.77;;;5.57;;
53843;SDS011;39744;53.314;5.710;2022-10-01T03:07:24;8.60;;;4.93;;
53843;SDS011;39744;53.314;5.710;2022-10-01T03:09:50;7.18;;;4.40;;
53843;SDS011;39744;53.314;5.710;2022-10-01T03:12:16;6.63;;;4.55;;
53843;SDS011;39744;53.314;5.710;2022-10-01T03:14:43;7.72;;;4.40;;
53843;SDS011;39744;53.314;5.710;2022-10-01T03:17:10;7.13;;;4.18;;
53843;SDS011;39744;53.314;5.710;2022-10-01T03:19:36;6.85;;;4.57;;
53843;SDS011;39744;53.314;5.710;2022-10-01T03:22:02;7.30;;;4.28;;
53843;SDS011;39744;53.314;5.710;2022-10-01T03:24:29;8.55;;;5.00;;
53843;SDS011;39744;53.314;5.710;2022-10-01T03:26:55;7.70;;;4.80;;
53843;SDS011;39744;53.314;5.710;2022-10-01T03:29:22;6.50;;;3.90;;
53843;SDS011;39744;53.314;5.710;2022-10-01T03:31:48;5.82;;;3.95;;
53843;SDS011;39744;53.314;5.710;2022-10-01T03:34:14;11.43;;;6.20;;
53843;SDS011;39744;53.314;5.710;2022-10-01T03:36:40;9.07;;;5.53;;
53843;SDS011;39744;53.314;5.710;2022-10-01T03:39:06;9.20;;;6.35;;
53843;SDS011;39744;53.314;5.710;2022-10-01T03:41:32;6.07;;;4.72;;
53843;SDS011;39744;53.314;5.710;2022-10-01T03:43:58;8.80;;;5.55;;
53843;SDS011;39744;53.314;5.710;2022-10-01T03:46:24;7.80;;;5.70;;
53843;SDS011;39744;53.314;5.710;2022-10-01T03:48:51;8.00;;;5.57;;
53843;SDS011;39744;53.314;5.710;2022-10-01T03:51:17;8.75;;;6.50;;
53843;SDS011;39744;53.314;5.710;2022-10-01T03:53:46;9.68;;;6.03;;
53843;SDS011;39744;53.314;5.710;2022-10-01T03:56:12;9.43;;;6.18;;
53843;SDS011;39744;53.314;5.710;2022-10-01T03:58:38;8.05;;;6.25;;
53843;SDS011;39744;53.314;5.710;2022-10-01T04:01:05;10.32;;;6.38;;
53843;SDS011;39744;53.314;5.710;2022-10-01T04:03:31;12.50;;;6.20;;
53843;SDS011;39744;53.314;5.710;2022-10-01T04:05:57;10.68;;;7.03;;
53843;SDS011;39744;53.314;5.710;2022-10-01T04:08:23;9.75;;;6.53;;
53843;SDS011;39744;53.314;5.710;2022-10-01T04:10:49;10.15;;;6.32;;
53843;SDS011;39744;53.314;5.710;2022-10-01T04:13:15;9.95;;;6.50;;
53843;SDS011;39744;53.314;5.710;2022-10-01T04:15:42;13.18;;;7.88;;
53843;SDS011;39744;53.314;5.710;2022-10-01T04:18:08;11.02;;;6.97;;
53843;SDS011;39744;53.314;5.710;2022-10-01T04:20:35;14.27;;;7.00;;
53843;SDS011;39744;53.314;5.710;2022-10-01T04:23:02;11.88;;;6.93;;
53843;SDS011;39744;53.314;5.710;2022-10-01T04:25:28;10.75;;;6.25;;
53843;SDS011;39744;53.314;5.710;2022-10-01T04:27:55;10.05;;;7.20;;
53843;SDS011;39744;53.314;5.710;2022-10-01T04:30:22;18.25;;;7.90;;
53843;SDS011;39744;53.314;5.710;2022-10-01T04:32:49;12.15;;;6.43;;
53843;SDS011;39744;53.314;5.710;2022-10-01T04:35:15;12.50;;;6.38;;
53843;SDS011;39744;53.314;5.710;2022-10-01T04:37:41;10.35;;;5.60;;
53843;SDS011;39744;53.314;5.710;2022-10-01T04:40:07;8.80;;;5.32;;
53843;SDS011;39744;53.314;5.710;2022-10-01T04:42:37;10.48;;;5.72;;
53843;SDS011;39744;53.314;5.710;2022-10-01T04:45:03;11.18;;;6.30;;
53843;SDS011;39744;53.314;5.710;2022-10-01T04:47:29;11.77;;;5.95;;
53843;SDS011;39744;53.314;5.710;2022-10-01T04:49:55;16.23;;;5.72;;
53843;SDS011;39744;53.314;5.710;2022-10-01T04:52:21;15.57;;;5.90;;
53843;SDS011;39744;53.314;5.710;2022-10-01T04:54:47;17.17;;;5.30;;
53843;SDS011;39744;53.314;5.710;2022-10-01T04:57:16;13.52;;;5.03;;
53843;SDS011;39744;53.314;5.710;2022-10-01T04:59:43;13.35;;;5.22;;
53843;SDS011;39744;53.314;5.710;2022-10-01T05:02:09;19.27;;;6.35;;
53843;SDS011;39744;53.314;5.710;2022-10-01T05:04:35;27.48;;;6.35;;
53843;SDS011;39744;53.314;5.710;2022-10-01T05:07:04;20.15;;;5.70;;
53843;SDS011;39744;53.314;5.710;2022-10-01T05:09:30;16.65;;;4.80;;
53843;SDS011;39744;53.314;5.710;2022-10-01T05:11:56;23.85;;;4.95;;
53843;SDS011;39744;53.314;5.710;2022-10-01T05:14:22;22.40;;;5.50;;
53843;SDS011;39744;53.314;5.710;2022-10-01T05:16:50;16.77;;;4.65;;
53843;SDS011;39744;53.314;5.710;2022-10-01T05:19:16;23.45;;;4.07;;
53843;SDS011;39744;53.314;5.710;2022-10-01T05:21:42;34.45;;;4.05;;
53843;SDS011;39744;53.314;5.710;2022-10-01T05:24:08;21.73;;;3.58;;
53843;SDS011;39744;53.314;5.710;2022-10-01T05:26:34;29.73;;;4.03;;
53843;SDS011;39744;53.314;5.710;2022-10-01T05:29:01;24.73;;;3.60;;
53843;SDS011;39744;53.314;5.710;2022-10-01T05:31:27;32.22;;;4.05;;
53843;SDS011;39744;53.314;5.710;2022-10-01T05:33:53;24.17;;;3.50;;
53843;SDS011;39744;53.314;5.710;2022-10-01T05:36:20;34.28;;;4.22;;
53843;SDS011;39744;53.314;5.710;2022-10-01T05:38:49;38.00;;;4.43;;
53843;SDS011;39744;53.314;5.710;2022-10-01T05:41:16;28.48;;;4.18;;
53843;SDS011;39744;53.314;5.710;2022-10-01T05:43:42;23.33;;;3.63;;
53843;SDS011;39744;53.314;5.710;2022-10-01T05:46:08;24.10;;;3.92;;
53843;SDS011;39744;53.314;5.710;2022-10-01T05:48:34;23.88;;;4.28;;
53843;SDS011;39744;53.314;5.710;2022-10-01T05:51:02;27.85;;;4.00;;
53843;SDS011;39744;53.314;5.710;2022-10-01T05:53:30;30.73;;;3.35;;
53843;SDS011;39744;53.314;5.710;2022-10-01T05:55:57;30.73;;;3.47;;
53843;SDS011;39744;53.314;5.710;2022-10-01T05:58:26;27.65;;;4.13;;
53843;SDS011;39744;53.314;5.710;2022-10-01T06:00:53;20.67;;;3.58;;
53843;SDS011;39744;53.314;5.710;2022-10-01T06:03:19;23.50;;;3.63;;
53843;SDS011;39744;53.314;5.710;2022-10-01T06:05:45;28.15;;;3.97;;
53843;SDS011;39744;53.314;5.710;2022-10-01T06:08:12;28.38;;;3.70;;
53843;SDS011;39744;53.314;5.710;2022-10-01T06:10:39;23.50;;;3.47;;
53843;SDS011;39744;53.314;5.710;2022-10-01T06:13:05;26.67;;;3.28;;
53843;SDS011;39744;53.314;5.710;2022-10-01T06:15:33;22.00;;;4.15;;
53843;SDS011;39744;53.314;5.710;2022-10-01T06:18:02;27.00;;;4.05;;
53843;SDS011;39744;53.314;5.710;2022-10-01T06:20:28;29.10;;;4.03;;
53843;SDS011;39744;53.314;5.710;2022-10-01T06:22:55;16.05;;;3.35;;
53843;SDS011;39744;53.314;5.710;2022-10-01T06:25:21;23.35;;;3.78;;
53843;SDS011;39744;53.314;5.710;2022-10-01T06:27:54;23.10;;;3.13;;
53843;SDS011;39744;53.314;5.710;2022-10-01T06:30:25;21.70;;;3.60;;
53843;SDS011;39744;53.314;5.710;2022-10-01T06:32:52;22.50;;;3.40;;
53843;SDS011;39744;53.314;5.710;2022-10-01T06:35:18;15.98;;;2.60;;
53843;SDS011;39744;53.314;5.710;2022-10-01T06:37:45;16.92;;;2.90;;
53843;SDS011;39744;53.314;5.710;2022-10-01T06:40:12;16.10;;;2.70;;
53843;SDS011;39744;53.314;5.710;2022-10-01T06:42:38;16.13;;;2.60;;
53843;SDS011;39744;53.314;5.710;2022-10-01T06:45:04;16.20;;;2.85;;
53843;SDS011;39744;53.314;5.710;2022-10-01T06:47:30;23.42;;;3.10;;
53843;SDS011;39744;53.314;5.710;2022-10-01T06:49:56;17.30;;;3.13;;
53843;SDS011;39744;53.314;5.710;2022-10-01T06:52:23;18.08;;;3.13;;
53843;SDS011;39744;53.314;5.710;2022-10-01T06:55:07;14.18;;;2.30;;
53843;SDS011;39744;53.314;5.710;2022-10-01T06:57:34;20.25;;;3.08;;
53843;SDS011;39744;53.314;5.710;2022-10-01T07:00:00;18.25;;;3.22;;
53843;SDS011;39744;53.314;5.710;2022-10-01T07:02:26;22.45;;;2.72;;
53843;SDS011;39744;53.314;5.710;2022-10-01T07:04:56;23.85;;;3.65;;
53843;SDS011;39744;53.314;5.710;2022-10-01T07:07:23;20.40;;;2.67;;
53843;SDS011;39744;53.314;5.710;2022-10-01T07:09:50;14.55;;;3.03;;
53843;SDS011;39744;53.314;5.710;2022-10-01T07:12:16;18.42;;;2.83;;
53843;SDS011;39744;53.314;5.710;2022-10-01T07:14:42;22.42;;;3.35;;
53843;SDS011;39744;53.314;5.710;2022-10-01T07:17:08;17.10;;;3.15;;
53843;SDS011;39744;53.314;5.710;2022-10-01T07:19:33;16.60;;;2.58;;
53843;SDS011;39744;53.314;5.710;2022-10-01T07:21:59;14.65;;;2.60;;
53843;SDS011;39744;53.314;5.710;2022-10-01T07:24:25;21.52;;;2.47;;
53843;SDS011;39744;53.314;5.710;2022-10-01T07:26:52;21.65;;;2.67;;
53843;SDS011;39744;53.314;5.710;2022-10-01T07:29:20;16.23;;;2.40;;
53843;SDS011;39744;53.314;5.710;2022-10-01T07:31:47;16.52;;;2.90;;
53843;SDS011;39744;53.314;5.710;2022-10-01T07:34:13;19.00;;;2.67;;
53843;SDS011;39744;53.314;5.710;2022-10-01T07:36:39;15.38;;;2.42;;
53843;SDS011;39744;53.314;5.710;2022-10-01T07:39:10;16.02;;;3.30;;
53843;SDS011;39744;53.314;5.710;2022-10-01T07:41:36;23.25;;;3.33;;
53843;SDS011;39744;53.314;5.710;2022-10-01T07:44:02;18.75;;;3.40;;
53843;SDS011;39744;53.314;5.710;2022-10-01T07:46:28;20.08;;;3.28;;
53843;SDS011;39744;53.314;5.710;2022-10-01T07:48:54;18.58;;;2.90;;
53843;SDS011;39744;53.314;5.710;2022-10-01T07:51:20;16.05;;;2.90;;
53843;SDS011;39744;53.314;5.710;2022-10-01T07:53:48;20.55;;;2.92;;
53843;SDS011;39744;53.314;5.710;2022-10-01T07:56:15;12.52;;;2.83;;
53843;SDS011;39744;53.314;5.710;2022-10-01T07:58:41;15.82;;;2.65;;
53843;SDS011;39744;53.314;5.710;2022-10-01T08:01:07;16.20;;;2.85;;
53843;SDS011;39744;53.314;5.710;2022-10-01T08:03:33;19.33;;;3.08;;
53843;SDS011;39744;53.314;5.710;2022-10-01T08:05:59;13.95;;;2.78;;
53843;SDS011;39744;53.314;5.710;2022-10-01T08:08:29;18.90;;;2.80;;
53843;SDS011;39744;53.314;5.710;2022-10-01T08:10:55;15.60;;;2.78;;
53843;SDS011;39744;53.314;5.710;2022-10-01T08:13:21;15.15;;;2.63;;
53843;SDS011;39744;53.314;5.710;2022-10-01T08:15:50;27.30;;;4.20;;
53843;SDS011;39744;53.314;5.710;2022-10-01T08:18:20;23.60;;;3.47;;
53843;SDS011;39744;53.314;5.710;2022-10-01T08:20:46;24.58;;;3.40;;
53843;SDS011;39744;53.314;5.710;2022-10-01T08:23:13;26.48;;;4.30;;
53843;SDS011;39744;53.314;5.710;2022-10-01T08:25:39;27.90;;;3.33;;
53843;SDS011;39744;53.314;5.710;2022-10-01T08:28:06;20.15;;;3.58;;
53843;SDS011;39744;53.314;5.710;2022-10-01T08:30:32;26.95;;;3.60;;
53843;SDS011;39744;53.314;5.710;2022-10-01T08:32:59;19.20;;;3.33;;
53843;SDS011;39744;53.314;5.710;2022-10-01T08:35:26;24.73;;;3.45;;
53843;SDS011;39744;53.314;5.710;2022-10-01T08:37:52;21.23;;;3.17;;
53843;SDS011;39744;53.314;5.710;2022-10-01T08:40:20;16.67;;;2.88;;
53843;SDS011;39744;53.314;5.710;2022-10-01T08:42:49;13.00;;;2.63;;
53843;SDS011;39744;53.314;5.710;2022-10-01T08:45:24;12.48;;;2.60;;
53843;SDS011;39744;53.314;5.710;2022-10-01T08:47:59;9.30;;;1.90;;
53843;SDS011;39744;53.314;5.710;2022-10-01T08:53:17;7.18;;;1.52;;
53843;SDS011;39744;53.314;5.710;2022-10-01T08:55:46;12.57;;;3.00;;
53843;SDS011;39744;53.314;5.710;2022-10-01T08:58:14;5.20;;;1.10;;
53843;SDS011;39744;53.314;5.710;2022-10-01T09:00:43;10.95;;;1.50;;
53843;SDS011;39744;53.314;5.710;2022-10-01T09:03:11;9.80;;;1.70;;
53843;SDS011;39744;53.314;5.710;2022-10-01T09:08:26;8.88;;;1.88;;
53843;SDS011;39744;53.314;5.710;2022-10-01T09:11:11;9.45;;;1.50;;
53843;SDS011;39744;53.314;5.710;2022-10-01T09:13:47;12.35;;;1.98;;
53843;SDS011;39744;53.314;5.710;2022-10-01T09:24:11;9.48;;;2.13;;
53843;SDS011;39744;53.314;5.710;2022-10-01T09:26:39;10.45;;;1.50;;
53843;SDS011;39744;53.314;5.710;2022-10-01T09:29:09;11.20;;;2.50;;
53843;SDS011;39744;53.314;5.710;2022-10-01T09:31:42;17.77;;;2.58;;
53843;SDS011;39744;53.314;5.710;2022-10-01T09:34:13;18.25;;;2.85;;
53843;SDS011;39744;53.314;5.710;2022-10-01T09:39:14;7.95;;;1.52;;
53843;SDS011;39744;53.314;5.710;2022-10-01T09:41:43;11.85;;;2.30;;
53843;SDS011;39744;53.314;5.710;2022-10-01T09:44:21;15.50;;;2.33;;
53843;SDS011;39744;53.314;5.710;2022-10-01T09:46:50;26.10;;;3.63;;
53843;SDS011;39744;53.314;5.710;2022-10-01T09:49:22;29.67;;;4.18;;
53843;SDS011;39744;53.314;5.710;2022-10-01T09:51:52;29.05;;;4.15;;
53843;SDS011;39744;53.314;5.710;2022-10-01T09:54:28;32.85;;;4.20;;
53843;SDS011;39744;53.314;5.710;2022-10-01T09:57:00;24.27;;;3.63;;
53843;SDS011;39744;53.314;5.710;2022-10-01T10:01:55;25.23;;;3.03;;
53843;SDS011;39744;53.314;5.710;2022-10-01T10:04:25;23.88;;;4.25;;
53843;SDS011;39744;53.314;5.710;2022-10-01T10:06:57;24.20;;;4.40;;
53843;SDS011;39744;53.314;5.710;2022-10-01T10:11:50;25.75;;;4.70;;
53843;SDS011;39744;53.314;5.710;2022-10-01T10:14:17;31.65;;;4.03;;
53843;SDS011;39744;53.314;5.710;2022-10-01T10:16:45;25.85;;;4.18;;
53843;SDS011;39744;53.314;5.710;2022-10-01T10:19:27;32.22;;;4.38;;
53843;SDS011;39744;53.314;5.710;2022-10-01T10:21:56;17.67;;;3.60;;
53843;SDS011;39744;53.314;5.710;2022-10-01T10:24:31;22.88;;;3.15;;
53843;SDS011;39744;53.314;5.710;2022-10-01T10:26:58;23.10;;;3.15;;
53843;SDS011;39744;53.314;5.710;2022-10-01T10:29:34;17.23;;;3.20;;
53843;SDS011;39744;53.314;5.710;2022-10-01T10:35:00;13.95;;;3.03;;
53843;SDS011;39744;53.314;5.710;2022-10-01T10:37:29;16.05;;;3.05;;
53843;SDS011;39744;53.314;5.710;2022-10-01T10:39:55;16.27;;;2.90;;
53843;SDS011;39744;53.314;5.710;2022-10-01T10:42:22;22.27;;;3.63;;
53843;SDS011;39744;53.314;5.710;2022-10-01T10:44:50;14.15;;;2.83;;
53843;SDS011;39744;53.314;5.710;2022-10-01T10:47:17;12.93;;;2.63;;
53843;SDS011;39744;53.314;5.710;2022-10-01T10:54:56;10.40;;;1.98;;
53843;SDS011;39744;53.314;5.710;2022-10-01T10:57:30;14.15;;;2.42;;
53843;SDS011;39744;53.314;5.710;2022-10-01T11:00:03;11.77;;;2.38;;
53843;SDS011;39744;53.314;5.710;2022-10-01T11:02:31;12.38;;;2.08;;
53843;SDS011;39744;53.314;5.710;2022-10-01T11:04:59;16.52;;;2.50;;
53843;SDS011;39744;53.314;5.710;2022-10-01T11:07:27;15.13;;;2.65;;
53843;SDS011;39744;53.314;5.710;2022-10-01T11:10:14;13.93;;;2.67;;
53843;SDS011;39744;53.314;5.710;2022-10-01T11:12:48;13.60;;;2.42;;
53843;SDS011;39744;53.314;5.710;2022-10-01T11:18:28;13.98;;;2.25;;
53843;SDS011;39744;53.314;5.710;2022-10-01T11:23:31;15.95;;;2.88;;
53843;SDS011;39744;53.314;5.710;2022-10-01T11:28:38;8.13;;;2.00;;
53843;SDS011;39744;53.314;5.710;2022-10-01T11:31:17;14.30;;;3.50;;
53843;SDS011;39744;53.314;5.710;2022-10-01T11:36:44;8.88;;;1.92;;
53843;SDS011;39744;53.314;5.710;2022-10-01T11:39:16;10.77;;;2.00;;
53843;SDS011;39744;53.314;5.710;2022-10-01T11:41:45;15.15;;;2.60;;
53843;SDS011;39744;53.314;5.710;2022-10-01T11:44:22;11.52;;;1.90;;
53843;SDS011;39744;53.314;5.710;2022-10-01T11:46:53;12.95;;;2.10;;
53843;SDS011;39744;53.314;5.710;2022-10-01T11:51:51;10.60;;;2.33;;
53843;SDS011;39744;53.314;5.710;2022-10-01T11:54:23;12.43;;;1.85;;
53843;SDS011;39744;53.314;5.710;2022-10-01T11:56:51;12.43;;;2.00;;
53843;SDS011;39744;53.314;5.710;2022-10-01T12:05:07;10.57;;;1.70;;
53843;SDS011;39744;53.314;5.710;2022-10-01T12:12:36;9.65;;;2.13;;
53843;SDS011;39744;53.314;5.710;2022-10-01T12:15:04;10.70;;;2.40;;
53843;SDS011;39744;53.314;5.710;2022-10-01T12:17:39;10.85;;;2.35;;
53843;SDS011;39744;53.314;5.710;2022-10-01T12:20:11;17.95;;;2.47;;
53843;SDS011;39744;53.314;5.710;2022-10-01T12:22:40;15.70;;;2.53;;
53843;SDS011;39744;53.314;5.710;2022-10-01T12:25:11;15.57;;;2.25;;
53843;SDS011;39744;53.314;5.710;2022-10-01T12:32:42;15.88;;;3.00;;
53843;SDS011;39744;53.314;5.710;2022-10-01T12:42:48;15.43;;;2.60;;
53843;SDS011;39744;53.314;5.710;2022-10-01T12:45:23;13.50;;;2.30;;
53843;SDS011;39744;53.314;5.710;2022-10-01T12:58:13;11.85;;;2.30;;
53843;SDS011;39744;53.314;5.710;2022-10-01T13:00:42;14.73;;;2.30;;
53843;SDS011;39744;53.314;5.710;2022-10-01T13:13:31;18.70;;;2.97;;
53843;SDS011;39744;53.314;5.710;2022-10-01T13:15:58;18.05;;;2.85;;
53843;SDS011;39744;53.314;5.710;2022-10-01T13:20:58;11.63;;;2.30;;
53843;SDS011;39744;53.314;5.710;2022-10-01T13:31:11;13.63;;;2.22;;
53843;SDS011;39744;53.314;5.710;2022-10-01T13:33:38;14.18;;;2.30;;
53843;SDS011;39744;53.314;5.710;2022-10-01T13:36:05;14.27;;;2.47;;
53843;SDS011;39744;53.314;5.710;2022-10-01T13:41:26;14.77;;;2.75;;
53843;SDS011;39744;53.314;5.710;2022-10-01T13:43:51;12.65;;;2.50;;
53843;SDS011;39744;53.314;5.710;2022-10-01T13:46:22;12.23;;;2.45;;
53843;SDS011;39744;53.314;5.710;2022-10-01T13:48:48;10.55;;;2.47;;
53843;SDS011;39744;53.314;5.710;2022-10-01T13:51:15;17.20;;;2.85;;
53843;SDS011;39744;53.314;5.710;2022-10-01T13:56:08;16.52;;;2.85;;
53843;SDS011;39744;53.314;5.710;2022-10-01T14:01:05;16.83;;;2.95;;
53843;SDS011;39744;53.314;5.710;2022-10-01T14:03:38;16.67;;;2.53;;
53843;SDS011;39744;53.314;5.710;2022-10-01T14:06:18;18.45;;;2.47;;
53843;SDS011;39744;53.314;5.710;2022-10-01T14:08:59;12.70;;;3.45;;
53843;SDS011;39744;53.314;5.710;2022-10-01T14:11:28;21.67;;;3.13;;
53843;SDS011;39744;53.314;5.710;2022-10-01T14:14:28;13.25;;;2.72;;
53843;SDS011;39744;53.314;5.710;2022-10-01T14:17:17;18.52;;;2.72;;
53843;SDS011;39744;53.314;5.710;2022-10-01T14:19:46;13.30;;;2.55;;
53843;SDS011;39744;53.314;5.710;2022-10-01T14:24:52;18.25;;;2.70;;
53843;SDS011;39744;53.314;5.710;2022-10-01T14:27:28;13.40;;;2.60;;
53843;SDS011;39744;53.314;5.710;2022-10-01T14:30:09;10.65;;;2.78;;
53843;SDS011;39744;53.314;5.710;2022-10-01T14:37:37;20.73;;;2.78;;
53843;SDS011;39744;53.314;5.710;2022-10-01T14:40:14;13.43;;;2.55;;
53843;SDS011;39744;53.314;5.710;2022-10-01T14:42:41;17.17;;;3.47;;
53843;SDS011;39744;53.314;5.710;2022-10-01T14:45:17;15.35;;;2.80;;
53843;SDS011;39744;53.314;5.710;2022-10-01T14:47:43;19.90;;;3.97;;
53843;SDS011;39744;53.314;5.710;2022-10-01T14:50:15;15.02;;;3.13;;
53843;SDS011;39744;53.314;5.710;2022-10-01T14:52:44;20.25;;;2.88;;
53843;SDS011;39744;53.314;5.710;2022-10-01T14:55:13;15.25;;;2.72;;
53843;SDS011;39744;53.314;5.710;2022-10-01T14:57:43;16.48;;;2.78;;
53843;SDS011;39744;53.314;5.710;2022-10-01T15:00:17;13.20;;;2.78;;
53843;SDS011;39744;53.314;5.710;2022-10-01T15:02:44;14.15;;;2.95;;
53843;SDS011;39744;53.314;5.710;2022-10-01T15:05:21;15.60;;;2.88;;
53843;SDS011;39744;53.314;5.710;2022-10-01T15:07:48;17.52;;;3.90;;
53843;SDS011;39744;53.314;5.710;2022-10-01T15:10:15;15.90;;;3.08;;
53843;SDS011;39744;53.314;5.710;2022-10-01T15:12:47;17.88;;;2.90;;
53843;SDS011;39744;53.314;5.710;2022-10-01T15:15:16;13.15;;;3.00;;
53843;SDS011;39744;53.314;5.710;2022-10-01T15:17:43;14.60;;;3.45;;
53843;SDS011;39744;53.314;5.710;2022-10-01T15:20:10;18.00;;;4.05;;
53843;SDS011;39744;53.314;5.710;2022-10-01T15:22:37;16.73;;;3.28;;
53843;SDS011;39744;53.314;5.710;2022-10-01T15:25:03;16.30;;;3.35;;
53843;SDS011;39744;53.314;5.710;2022-10-01T15:27:29;19.00;;;3.50;;
53843;SDS011;39744;53.314;5.710;2022-10-01T15:29:56;12.45;;;2.85;;
53843;SDS011;39744;53.314;5.710;2022-10-01T15:32:23;15.30;;;2.65;;
53843;SDS011;39744;53.314;5.710;2022-10-01T15:34:50;16.30;;;3.10;;
53843;SDS011;39744;53.314;5.710;2022-10-01T15:37:22;16.73;;;3.60;;
53843;SDS011;39744;53.314;5.710;2022-10-01T15:39:49;17.60;;;3.10;;
53843;SDS011;39744;53.314;5.710;2022-10-01T15:44:45;13.82;;;2.72;;
53843;SDS011;39744;53.314;5.710;2022-10-01T15:50:01;13.82;;;2.97;;
53843;SDS011;39744;53.314;5.710;2022-10-01T15:52:29;16.90;;;3.53;;
53843;SDS011;39744;53.314;5.710;2022-10-01T15:55:16;14.02;;;2.60;;
53843;SDS011;39744;53.314;5.710;2022-10-01T15:57:45;12.30;;;2.95;;
53843;SDS011;39744;53.314;5.710;2022-10-01T16:00:25;15.73;;;3.25;;
53843;SDS011;39744;53.314;5.710;2022-10-01T16:02:52;18.25;;;3.03;;
53843;SDS011;39744;53.314;5.710;2022-10-01T16:05:22;21.05;;;3.15;;
53843;SDS011;39744;53.314;5.710;2022-10-01T16:07:49;19.17;;;3.38;;
53843;SDS011;39744;53.314;5.710;2022-10-01T16:10:36;18.10;;;3.38;;
53843;SDS011;39744;53.314;5.710;2022-10-01T16:13:25;16.10;;;2.97;;
53843;SDS011;39744;53.314;5.710;2022-10-01T16:16:27;17.88;;;3.38;;
53843;SDS011;39744;53.314;5.710;2022-10-01T16:18:47;15.40;;;3.08;;
53843;SDS011;39744;53.314;5.710;2022-10-01T16:21:16;18.10;;;3.60;;
53843;SDS011;39744;53.314;5.710;2022-10-01T16:23:44;23.35;;;3.40;;
53843;SDS011;39744;53.314;5.710;2022-10-01T16:28:53;18.08;;;2.95;;
53843;SDS011;39744;53.314;5.710;2022-10-01T16:31:20;19.38;;;3.08;;
53843;SDS011;39744;53.314;5.710;2022-10-01T16:33:46;16.98;;;3.20;;
53843;SDS011;39744;53.314;5.710;2022-10-01T16:36:12;15.13;;;3.28;;
53843;SDS011;39744;53.314;5.710;2022-10-01T16:38:43;15.45;;;2.78;;
53843;SDS011;39744;53.314;5.710;2022-10-01T16:41:09;16.08;;;2.78;;
53843;SDS011;39744;53.314;5.710;2022-10-01T16:43:36;18.05;;;3.85;;
53843;SDS011;39744;53.314;5.710;2022-10-01T16:46:03;16.98;;;3.35;;
53843;SDS011;39744;53.314;5.710;2022-10-01T16:48:29;13.20;;;2.90;;
53843;SDS011;39744;53.314;5.710;2022-10-01T16:50:55;15.45;;;2.40;;
53843;SDS011;39744;53.314;5.710;2022-10-01T16:53:23;10.48;;;2.50;;
53843;SDS011;39744;53.314;5.710;2022-10-01T16:55:50;13.10;;;2.30;;
53843;SDS011;39744;53.314;5.710;2022-10-01T16:58:16;15.77;;;2.45;;
53843;SDS011;39744;53.314;5.710;2022-10-01T17:00:43;9.18;;;2.33;;
53843;SDS011;39744;53.314;5.710;2022-10-01T17:03:14;17.45;;;3.30;;
53843;SDS011;39744;53.314;5.710;2022-10-01T17:05:41;16.08;;;2.75;;
53843;SDS011;39744;53.314;5.710;2022-10-01T17:08:08;15.38;;;2.95;;
53843;SDS011;39744;53.314;5.710;2022-10-01T17:10:41;14.55;;;3.15;;
53843;SDS011;39744;53.314;5.710;2022-10-01T17:13:10;23.20;;;3.93;;